sensor_id;sensor_type;location;lat;lon;timestamp;P1;durP1;ratioP1;P2;durP2;ratioP2
18973;SDS011;9621;48.690;9.466;2022-12-18T07:39:17;15.83;;;8.60;;
18973;SDS011;9621;48.690;9.466;2022-12-18T07:41:44;22.27;;;10.60;;
18973;SDS011;9621;48.690;9.466;2022-12-18T07:44:32;21.80;;;11.77;;
18973;SDS011;9621;48.690;9.466;2022-12-18T07:46:59;26.17;;;13.80;;
18973;SDS011;9621;48.690;9.466;2022-12-18T07:49:30;25.07;;;14.23;;
18973;SDS011;9621;48.690;9.466;2022-12-18T07:51:57;30.00;;;15.93;;
18973;SDS011;9621;48.690;9.466;2022-12-18T07:54:28;27.33;;;14.90;;
18973;SDS011;9621;48.690;9.466;2022-12-18T07:56:55;28.67;;;16.27;;
18973;SDS011;9621;48.690;9.466;2022-12-18T07:59:27;27.63;;;15.13;;
18973;SDS011;9621;48.690;9.466;2022-12-18T08:01:59;30.40;;;15.53;;
18973;SDS011;9621;48.690;9.466;2022-12-18T08:04:29;31.13;;;15.33;;
18973;SDS011;9621;48.690;9.466;2022-12-18T08:07:05;29.87;;;16.20;;
18973;SDS011;9621;48.690;9.466;2022-12-18T08:09:34;28.87;;;14.90;;
18973;SDS011;9621;48.690;9.466;2022-12-18T08:12:09;37.30;;;16.40;;
18973;SDS011;9621;48.690;9.466;2022-12-18T08:14:45;40.50;;;18.30;;
18973;SDS011;9621;48.690;9.466;2022-12-18T08:17:16;44.10;;;20.00;;
18973;SDS011;9621;48.690;9.466;2022-12-18T08:19:43;40.50;;;20.00;;
18973;SDS011;9621;48.690;9.466;2022-12-18T08:22:12;45.17;;;22.57;;
18973;SDS011;9621;48.690;9.466;2022-12-18T08:27:46;45.70;;;22.33;;
18973;SDS011;9621;48.690;9.466;2022-12-18T08:30:17;50.87;;;22.70;;
18973;SDS011;9621;48.690;9.466;2022-12-18T08:33:01;45.43;;;22.20;;
18973;SDS011;9621;48.690;9.466;2022-12-18T08:35:42;47.90;;;22.63;;
18973;SDS011;9621;48.690;9.466;2022-12-18T08:38:15;48.43;;;22.63;;
18973;SDS011;9621;48.690;9.466;2022-12-18T08:43:42;43.33;;;19.70;;
18973;SDS011;9621;48.690;9.466;2022-12-18T08:46:36;44.87;;;21.27;;
18973;SDS011;9621;48.690;9.466;2022-12-18T08:49:22;46.20;;;20.83;;
18973;SDS011;9621;48.690;9.466;2022-12-18T08:52:08;42.87;;;20.70;;
18973;SDS011;9621;48.690;9.466;2022-12-18T08:54:58;42.17;;;20.97;;
18973;SDS011;9621;48.690;9.466;2022-12-18T08:57:27;44.33;;;20.47;;
18973;SDS011;9621;48.690;9.466;2022-12-18T08:59:57;40.13;;;19.57;;
18973;SDS011;9621;48.690;9.466;2022-12-18T09:02:30;46.40;;;21.80;;
18973;SDS011;9621;48.690;9.466;2022-12-18T09:05:14;46.80;;;22.10;;
18973;SDS011;9621;48.690;9.466;2022-12-18T09:08:11;43.77;;;23.03;;
18973;SDS011;9621;48.690;9.466;2022-12-18T09:11:35;43.47;;;23.47;;
18973;SDS011;9621;48.690;9.466;2022-12-18T09:17:55;42.80;;;22.77;;
18973;SDS011;9621;48.690;9.466;2022-12-18T09:23:55;42.87;;;22.90;;
18973;SDS011;9621;48.690;9.466;2022-12-18T09:26:38;41.93;;;21.97;;
18973;SDS011;9621;48.690;9.466;2022-12-18T09:29:08;46.33;;;22.23;;
18973;SDS011;9621;48.690;9.466;2022-12-18T09:31:44;41.57;;;22.83;;
18973;SDS011;9621;48.690;9.466;2022-12-18T09:34:23;41.13;;;22.67;;
18973;SDS011;9621;48.690;9.466;2022-12-18T09:37:07;38.80;;;22.63;;
18973;SDS011;9621;48.690;9.466;2022-12-18T09:39:34;42.20;;;24.03;;
18973;SDS011;9621;48.690;9.466;2022-12-18T09:42:02;39.23;;;22.57;;
18973;SDS011;9621;48.690;9.466;2022-12-18T09:44:31;41.37;;;23.77;;
18973;SDS011;9621;48.690;9.466;2022-12-18T09:47:03;42.60;;;24.93;;
18973;SDS011;9621;48.690;9.466;2022-12-18T09:49:37;41.43;;;24.83;;
18973;SDS011;9621;48.690;9.466;2022-12-18T09:52:09;49.90;;;27.27;;
18973;SDS011;9621;48.690;9.466;2022-12-18T09:54:43;43.60;;;25.27;;
18973;SDS011;9621;48.690;9.466;2022-12-18T09:57:13;44.30;;;25.47;;
18973;SDS011;9621;48.690;9.466;2022-12-18T09:59:44;51.30;;;27.23;;
18973;SDS011;9621;48.690;9.466;2022-12-18T10:02:19;51.87;;;27.67;;
18973;SDS011;9621;48.690;9.466;2022-12-18T10:04:56;53.13;;;28.57;;
18973;SDS011;9621;48.690;9.466;2022-12-18T10:07:33;58.80;;;31.13;;
18973;SDS011;9621;48.690;9.466;2022-12-18T10:10:26;53.67;;;31.37;;
18973;SDS011;9621;48.690;9.466;2022-12-18T10:13:05;56.87;;;31.50;;
18973;SDS011;9621;48.690;9.466;2022-12-18T10:15:39;57.90;;;32.77;;
18973;SDS011;9621;48.690;9.466;2022-12-18T10:18:33;57.77;;;31.27;;
18973;SDS011;9621;48.690;9.466;2022-12-18T10:21:30;58.20;;;31.07;;
18973;SDS011;9621;48.690;9.466;2022-12-18T10:24:11;58.67;;;31.43;;
18973;SDS011;9621;48.690;9.466;2022-12-18T10:26:50;61.13;;;31.00;;
18973;SDS011;9621;48.690;9.466;2022-12-18T10:29:22;60.80;;;33.57;;
18973;SDS011;9621;48.690;9.466;2022-12-18T10:31:52;63.03;;;34.07;;
18973;SDS011;9621;48.690;9.466;2022-12-18T10:34:19;55.30;;;30.97;;
18973;SDS011;9621;48.690;9.466;2022-12-18T10:36:48;53.73;;;31.13;;
18973;SDS011;9621;48.690;9.466;2022-12-18T10:39:16;54.90;;;30.60;;
18973;SDS011;9621;48.690;9.466;2022-12-18T10:41:44;56.40;;;32.27;;
18973;SDS011;9621;48.690;9.466;2022-12-18T10:44:12;54.47;;;31.80;;
18973;SDS011;9621;48.690;9.466;2022-12-18T10:46:45;60.73;;;33.13;;
18973;SDS011;9621;48.690;9.466;2022-12-18T10:49:21;57.03;;;32.50;;
18973;SDS011;9621;48.690;9.466;2022-12-18T10:51:53;65.23;;;35.83;;
18973;SDS011;9621;48.690;9.466;2022-12-18T10:54:37;55.50;;;31.57;;
18973;SDS011;9621;48.690;9.466;2022-12-18T10:57:14;58.23;;;33.27;;
18973;SDS011;9621;48.690;9.466;2022-12-18T10:59:49;60.47;;;34.00;;
18973;SDS011;9621;48.690;9.466;2022-12-18T11:02:24;59.50;;;34.07;;
18973;SDS011;9621;48.690;9.466;2022-12-18T11:04:55;60.20;;;34.23;;
18973;SDS011;9621;48.690;9.466;2022-12-18T11:07:23;61.43;;;33.70;;
18973;SDS011;9621;48.690;9.466;2022-12-18T11:09:59;60.63;;;33.40;;
18973;SDS011;9621;48.690;9.466;2022-12-18T11:12:27;77.37;;;38.13;;
18973;SDS011;9621;48.690;9.466;2022-12-18T11:14:55;452.83;;;142.57;;
18973;SDS011;9621;48.690;9.466;2022-12-18T11:17:25;277.60;;;99.83;;
18973;SDS011;9621;48.690;9.466;2022-12-18T11:19:58;100.90;;;47.77;;
18973;SDS011;9621;48.690;9.466;2022-12-18T11:22:29;76.87;;;40.20;;
18973;SDS011;9621;48.690;9.466;2022-12-18T11:24:58;64.07;;;37.00;;
18973;SDS011;9621;48.690;9.466;2022-12-18T11:27:26;68.63;;;37.80;;
18973;SDS011;9621;48.690;9.466;2022-12-18T11:30:06;75.43;;;38.43;;
18973;SDS011;9621;48.690;9.466;2022-12-18T11:32:36;64.00;;;33.37;;
18973;SDS011;9621;48.690;9.466;2022-12-18T11:35:11;56.00;;;31.83;;
18973;SDS011;9621;48.690;9.466;2022-12-18T11:37:46;54.73;;;31.87;;
18973;SDS011;9621;48.690;9.466;2022-12-18T11:40:16;51.87;;;32.00;;
18973;SDS011;9621;48.690;9.466;2022-12-18T11:42:49;52.10;;;31.07;;
18973;SDS011;9621;48.690;9.466;2022-12-18T11:45:24;55.93;;;32.40;;
18973;SDS011;9621;48.690;9.466;2022-12-18T11:48:01;57.20;;;32.33;;
18973;SDS011;9621;48.690;9.466;2022-12-18T11:50:33;53.33;;;31.07;;
18973;SDS011;9621;48.690;9.466;2022-12-18T11:53:11;52.27;;;30.60;;
18973;SDS011;9621;48.690;9.466;2022-12-18T11:55:40;52.03;;;30.87;;
18973;SDS011;9621;48.690;9.466;2022-12-18T11:58:17;54.53;;;30.97;;
18973;SDS011;9621;48.690;9.466;2022-12-18T12:00:58;57.17;;;32.30;;
18973;SDS011;9621;48.690;9.466;2022-12-18T12:03:45;52.40;;;30.40;;
18973;SDS011;9621;48.690;9.466;2022-12-18T12:06:21;52.50;;;30.43;;
18973;SDS011;9621;48.690;9.466;2022-12-18T12:08:57;55.90;;;31.53;;
18973;SDS011;9621;48.690;9.466;2022-12-18T12:11:32;56.43;;;32.47;;
18973;SDS011;9621;48.690;9.466;2022-12-18T12:14:13;53.47;;;31.63;;
18973;SDS011;9621;48.690;9.466;2022-12-18T12:16:53;56.60;;;31.97;;
18973;SDS011;9621;48.690;9.466;2022-12-18T12:19:32;56.40;;;33.00;;
18973;SDS011;9621;48.690;9.466;2022-12-18T12:22:10;54.97;;;31.67;;
18973;SDS011;9621;48.690;9.466;2022-12-18T12:24:49;57.87;;;32.73;;
18973;SDS011;9621;48.690;9.466;2022-12-18T12:27:27;59.53;;;31.87;;
18973;SDS011;9621;48.690;9.466;2022-12-18T12:30:02;58.57;;;33.00;;
18973;SDS011;9621;48.690;9.466;2022-12-18T12:32:42;61.00;;;31.33;;
18973;SDS011;9621;48.690;9.466;2022-12-18T12:35:22;50.97;;;28.17;;
18973;SDS011;9621;48.690;9.466;2022-12-18T12:38:00;48.30;;;26.57;;
18973;SDS011;9621;48.690;9.466;2022-12-18T12:40:37;47.53;;;26.33;;
18973;SDS011;9621;48.690;9.466;2022-12-18T12:43:12;49.57;;;26.67;;
18973;SDS011;9621;48.690;9.466;2022-12-18T12:45:57;47.37;;;24.70;;
18973;SDS011;9621;48.690;9.466;2022-12-18T12:48:31;48.30;;;25.57;;
18973;SDS011;9621;48.690;9.466;2022-12-18T12:51:03;46.33;;;25.10;;
18973;SDS011;9621;48.690;9.466;2022-12-18T12:53:37;49.60;;;24.00;;
18973;SDS011;9621;48.690;9.466;2022-12-18T12:56:12;49.70;;;25.73;;
18973;SDS011;9621;48.690;9.466;2022-12-18T12:58:51;50.00;;;25.17;;
18973;SDS011;9621;48.690;9.466;2022-12-18T13:01:26;48.17;;;24.33;;
18973;SDS011;9621;48.690;9.466;2022-12-18T13:04:02;50.90;;;24.33;;
18973;SDS011;9621;48.690;9.466;2022-12-18T13:06:41;55.93;;;26.33;;
18973;SDS011;9621;48.690;9.466;2022-12-18T13:09:13;53.37;;;25.27;;
18973;SDS011;9621;48.690;9.466;2022-12-18T13:11:43;52.50;;;24.97;;
18973;SDS011;9621;48.690;9.466;2022-12-18T13:14:33;51.60;;;24.13;;
18973;SDS011;9621;48.690;9.466;2022-12-18T13:17:23;55.40;;;27.30;;
18973;SDS011;9621;48.690;9.466;2022-12-18T13:20:08;54.73;;;24.87;;
18973;SDS011;9621;48.690;9.466;2022-12-18T13:22:41;53.50;;;25.40;;
18973;SDS011;9621;48.690;9.466;2022-12-18T13:25:29;54.27;;;26.07;;
18973;SDS011;9621;48.690;9.466;2022-12-18T13:30:50;60.60;;;26.83;;
18973;SDS011;9621;48.690;9.466;2022-12-18T13:33:40;59.53;;;27.57;;
18973;SDS011;9621;48.690;9.466;2022-12-18T13:36:16;62.83;;;28.20;;
18973;SDS011;9621;48.690;9.466;2022-12-18T13:48:27;51.77;;;25.97;;
18973;SDS011;9621;48.690;9.466;2022-12-18T13:50:58;58.27;;;26.63;;
18973;SDS011;9621;48.690;9.466;2022-12-18T13:53:29;53.60;;;25.63;;
18973;SDS011;9621;48.690;9.466;2022-12-18T13:55:59;49.47;;;24.70;;
18973;SDS011;9621;48.690;9.466;2022-12-18T13:58:26;55.57;;;26.47;;
18973;SDS011;9621;48.690;9.466;2022-12-18T14:00:53;54.83;;;25.57;;
18973;SDS011;9621;48.690;9.466;2022-12-18T14:03:23;55.97;;;26.20;;
18973;SDS011;9621;48.690;9.466;2022-12-18T14:05:53;56.70;;;26.87;;
18973;SDS011;9621;48.690;9.466;2022-12-18T14:08:22;57.70;;;25.53;;
18973;SDS011;9621;48.690;9.466;2022-12-18T14:10:51;52.07;;;25.97;;
18973;SDS011;9621;48.690;9.466;2022-12-18T14:13:21;52.27;;;25.70;;
18973;SDS011;9621;48.690;9.466;2022-12-18T14:15:53;55.10;;;25.27;;
18973;SDS011;9621;48.690;9.466;2022-12-18T14:18:23;55.73;;;26.90;;
18973;SDS011;9621;48.690;9.466;2022-12-18T14:20:53;55.70;;;25.00;;
18973;SDS011;9621;48.690;9.466;2022-12-18T14:23:29;54.83;;;25.87;;
18973;SDS011;9621;48.690;9.466;2022-12-18T14:25:59;55.07;;;24.00;;
18973;SDS011;9621;48.690;9.466;2022-12-18T14:28:27;50.13;;;25.33;;
18973;SDS011;9621;48.690;9.466;2022-12-18T14:30:55;56.53;;;27.10;;
18973;SDS011;9621;48.690;9.466;2022-12-18T14:33:25;51.47;;;25.53;;
18973;SDS011;9621;48.690;9.466;2022-12-18T14:35:54;52.70;;;25.70;;
18973;SDS011;9621;48.690;9.466;2022-12-18T14:38:25;52.87;;;26.10;;
18973;SDS011;9621;48.690;9.466;2022-12-18T14:40:56;58.23;;;25.43;;
18973;SDS011;9621;48.690;9.466;2022-12-18T14:43:24;50.67;;;25.53;;
18973;SDS011;9621;48.690;9.466;2022-12-18T14:45:52;55.10;;;25.70;;
18973;SDS011;9621;48.690;9.466;2022-12-18T14:48:21;60.13;;;26.23;;
18973;SDS011;9621;48.690;9.466;2022-12-18T14:51:03;57.73;;;27.03;;
18973;SDS011;9621;48.690;9.466;2022-12-18T14:53:37;62.57;;;27.47;;
18973;SDS011;9621;48.690;9.466;2022-12-18T14:56:13;57.67;;;26.60;;
18973;SDS011;9621;48.690;9.466;2022-12-18T14:58:46;61.07;;;27.30;;
18973;SDS011;9621;48.690;9.466;2022-12-18T15:07:13;56.40;;;26.03;;
18973;SDS011;9621;48.690;9.466;2022-12-18T15:10:09;56.20;;;24.90;;
18973;SDS011;9621;48.690;9.466;2022-12-18T15:12:48;59.07;;;25.20;;
18973;SDS011;9621;48.690;9.466;2022-12-18T15:15:46;55.77;;;23.97;;
18973;SDS011;9621;48.690;9.466;2022-12-18T15:18:35;50.00;;;22.80;;
18973;SDS011;9621;48.690;9.466;2022-12-18T15:21:21;54.37;;;23.60;;
18973;SDS011;9621;48.690;9.466;2022-12-18T15:23:50;55.87;;;25.30;;
18973;SDS011;9621;48.690;9.466;2022-12-18T15:26:21;58.03;;;26.47;;
18973;SDS011;9621;48.690;9.466;2022-12-18T15:28:49;59.93;;;25.50;;
18973;SDS011;9621;48.690;9.466;2022-12-18T15:31:35;53.70;;;23.83;;
18973;SDS011;9621;48.690;9.466;2022-12-18T15:34:14;57.00;;;24.57;;
18973;SDS011;9621;48.690;9.466;2022-12-18T15:36:52;54.40;;;23.93;;
18973;SDS011;9621;48.690;9.466;2022-12-18T15:39:29;60.47;;;24.37;;
18973;SDS011;9621;48.690;9.466;2022-12-18T15:42:23;56.37;;;24.03;;
18973;SDS011;9621;48.690;9.466;2022-12-18T15:45:10;55.20;;;23.77;;
18973;SDS011;9621;48.690;9.466;2022-12-18T15:47:38;60.50;;;24.37;;
18973;SDS011;9621;48.690;9.466;2022-12-18T15:50:09;49.53;;;23.07;;
18973;SDS011;9621;48.690;9.466;2022-12-18T15:52:38;53.50;;;24.33;;
18973;SDS011;9621;48.690;9.466;2022-12-18T15:55:17;53.10;;;24.70;;
18973;SDS011;9621;48.690;9.466;2022-12-18T15:58:06;52.13;;;22.90;;
18973;SDS011;9621;48.690;9.466;2022-12-18T16:00:51;50.53;;;22.60;;
18973;SDS011;9621;48.690;9.466;2022-12-18T16:03:22;41.93;;;20.50;;
18973;SDS011;9621;48.690;9.466;2022-12-18T16:05:58;51.40;;;23.17;;
18973;SDS011;9621;48.690;9.466;2022-12-18T16:08:55;50.37;;;21.60;;
18973;SDS011;9621;48.690;9.466;2022-12-18T16:11:51;48.90;;;22.23;;
18973;SDS011;9621;48.690;9.466;2022-12-18T16:14:47;47.83;;;21.40;;
18973;SDS011;9621;48.690;9.466;2022-12-18T18:26:37;40.60;;;18.40;;
18973;SDS011;9621;48.690;9.466;2022-12-18T18:29:12;47.97;;;20.20;;
18973;SDS011;9621;48.690;9.466;2022-12-18T18:31:55;40.77;;;19.10;;
18973;SDS011;9621;48.690;9.466;2022-12-18T19:49:47;46.97;;;21.10;;
18973;SDS011;9621;48.690;9.466;2022-12-18T19:52:20;48.23;;;21.47;;
18973;SDS011;9621;48.690;9.466;2022-12-18T19:54:51;50.80;;;22.03;;
18973;SDS011;9621;48.690;9.466;2022-12-18T19:57:19;53.47;;;22.57;;
18973;SDS011;9621;48.690;9.466;2022-12-18T19:59:46;44.73;;;20.37;;
18973;SDS011;9621;48.690;9.466;2022-12-18T20:02:13;50.80;;;21.60;;
18973;SDS011;9621;48.690;9.466;2022-12-18T20:04:53;50.93;;;22.53;;
18973;SDS011;9621;48.690;9.466;2022-12-18T20:07:29;51.07;;;22.07;;
18973;SDS011;9621;48.690;9.466;2022-12-18T20:09:57;46.70;;;21.30;;
18973;SDS011;9621;48.690;9.466;2022-12-18T20:12:30;48.10;;;22.03;;
18973;SDS011;9621;48.690;9.466;2022-12-18T20:14:57;47.47;;;21.30;;
18973;SDS011;9621;48.690;9.466;2022-12-18T20:17:25;46.93;;;21.07;;
18973;SDS011;9621;48.690;9.466;2022-12-18T20:19:54;46.50;;;21.17;;
18973;SDS011;9621;48.690;9.466;2022-12-18T20:22:22;45.60;;;21.93;;
18973;SDS011;9621;48.690;9.466;2022-12-18T20:24:49;48.30;;;22.73;;
18973;SDS011;9621;48.690;9.466;2022-12-18T20:27:16;48.73;;;22.47;;
18973;SDS011;9621;48.690;9.466;2022-12-18T20:29:44;49.30;;;22.03;;
18973;SDS011;9621;48.690;9.466;2022-12-18T20:32:12;41.10;;;19.90;;
18973;SDS011;9621;48.690;9.466;2022-12-18T20:34:40;45.90;;;21.27;;
18973;SDS011;9621;48.690;9.466;2022-12-18T20:37:09;50.10;;;21.63;;
18973;SDS011;9621;48.690;9.466;2022-12-18T20:39:38;46.33;;;20.60;;
18973;SDS011;9621;48.690;9.466;2022-12-18T20:42:05;51.03;;;21.93;;
18973;SDS011;9621;48.690;9.466;2022-12-18T20:44:32;51.27;;;22.07;;
18973;SDS011;9621;48.690;9.466;2022-12-18T20:46:59;46.23;;;21.23;;
18973;SDS011;9621;48.690;9.466;2022-12-18T20:49:27;48.63;;;20.47;;
18973;SDS011;9621;48.690;9.466;2022-12-18T20:51:55;46.20;;;21.90;;
18973;SDS011;9621;48.690;9.466;2022-12-18T20:54:25;49.57;;;22.43;;
18973;SDS011;9621;48.690;9.466;2022-12-18T20:56:54;50.93;;;21.93;;
18973;SDS011;9621;48.690;9.466;2022-12-18T20:59:22;49.43;;;22.93;;
18973;SDS011;9621;48.690;9.466;2022-12-18T21:01:50;44.63;;;21.30;;
18973;SDS011;9621;48.690;9.466;2022-12-18T21:04:18;47.17;;;22.23;;
18973;SDS011;9621;48.690;9.466;2022-12-18T21:06:45;51.27;;;23.10;;
18973;SDS011;9621;48.690;9.466;2022-12-18T21:09:16;48.63;;;23.73;;
18973;SDS011;9621;48.690;9.466;2022-12-18T21:11:54;47.77;;;23.37;;
18973;SDS011;9621;48.690;9.466;2022-12-18T21:14:39;57.37;;;26.07;;
18973;SDS011;9621;48.690;9.466;2022-12-18T21:17:06;50.07;;;23.97;;
18973;SDS011;9621;48.690;9.466;2022-12-18T21:19:36;54.97;;;23.73;;
18973;SDS011;9621;48.690;9.466;2022-12-18T21:22:06;56.00;;;25.40;;
18973;SDS011;9621;48.690;9.466;2022-12-18T21:24:33;55.70;;;26.50;;
18973;SDS011;9621;48.690;9.466;2022-12-18T21:27:02;62.60;;;29.30;;
18973;SDS011;9621;48.690;9.466;2022-12-18T21:29:29;74.67;;;31.20;;
18973;SDS011;9621;48.690;9.466;2022-12-18T21:31:57;65.03;;;29.03;;
18973;SDS011;9621;48.690;9.466;2022-12-18T21:34:25;56.07;;;25.13;;
18973;SDS011;9621;48.690;9.466;2022-12-18T21:36:53;53.97;;;24.50;;
18973;SDS011;9621;48.690;9.466;2022-12-18T21:39:22;51.40;;;24.07;;
18973;SDS011;9621;48.690;9.466;2022-12-18T21:41:50;51.37;;;24.03;;
18973;SDS011;9621;48.690;9.466;2022-12-18T21:44:36;59.50;;;26.43;;
18973;SDS011;9621;48.690;9.466;2022-12-18T21:47:07;57.27;;;25.37;;
18973;SDS011;9621;48.690;9.466;2022-12-18T21:49:34;46.97;;;22.10;;
18973;SDS011;9621;48.690;9.466;2022-12-18T21:52:01;54.67;;;24.00;;
18973;SDS011;9621;48.690;9.466;2022-12-18T21:54:28;55.57;;;24.90;;
18973;SDS011;9621;48.690;9.466;2022-12-18T21:56:56;54.03;;;24.63;;
18973;SDS011;9621;48.690;9.466;2022-12-18T21:59:25;50.57;;;23.67;;
18973;SDS011;9621;48.690;9.466;2022-12-18T22:01:55;47.10;;;22.40;;
18973;SDS011;9621;48.690;9.466;2022-12-18T22:04:26;48.27;;;23.13;;
18973;SDS011;9621;48.690;9.466;2022-12-18T22:06:54;50.60;;;25.17;;
18973;SDS011;9621;48.690;9.466;2022-12-18T22:09:23;54.93;;;25.57;;
18973;SDS011;9621;48.690;9.466;2022-12-18T22:11:55;48.97;;;23.77;;
18973;SDS011;9621;48.690;9.466;2022-12-18T22:14:23;52.30;;;23.20;;
18973;SDS011;9621;48.690;9.466;2022-12-18T22:16:56;52.13;;;24.27;;
18973;SDS011;9621;48.690;9.466;2022-12-18T22:19:26;53.37;;;24.77;;
18973;SDS011;9621;48.690;9.466;2022-12-18T22:21:54;57.03;;;23.40;;
18973;SDS011;9621;48.690;9.466;2022-12-18T22:24:25;46.83;;;23.30;;
18973;SDS011;9621;48.690;9.466;2022-12-18T22:27:01;52.70;;;24.00;;
18973;SDS011;9621;48.690;9.466;2022-12-18T22:29:29;47.77;;;24.20;;
18973;SDS011;9621;48.690;9.466;2022-12-18T22:32:15;85.03;;;34.40;;
18973;SDS011;9621;48.690;9.466;2022-12-18T22:34:42;71.87;;;30.27;;
18973;SDS011;9621;48.690;9.466;2022-12-18T22:37:13;64.07;;;28.93;;
18973;SDS011;9621;48.690;9.466;2022-12-18T22:39:40;99.87;;;39.70;;
18973;SDS011;9621;48.690;9.466;2022-12-18T22:44:51;68.77;;;28.30;;
18973;SDS011;9621;48.690;9.466;2022-12-18T22:47:19;54.53;;;25.00;;
18973;SDS011;9621;48.690;9.466;2022-12-18T22:49:46;53.30;;;24.03;;
18973;SDS011;9621;48.690;9.466;2022-12-18T22:52:13;50.03;;;24.07;;
18973;SDS011;9621;48.690;9.466;2022-12-18T22:54:40;49.37;;;23.67;;
18973;SDS011;9621;48.690;9.466;2022-12-18T22:57:07;57.17;;;26.67;;
18973;SDS011;9621;48.690;9.466;2022-12-18T22:59:35;51.03;;;24.57;;
18973;SDS011;9621;48.690;9.466;2022-12-18T23:02:02;48.90;;;23.13;;
18973;SDS011;9621;48.690;9.466;2022-12-18T23:04:30;53.00;;;23.47;;
18973;SDS011;9621;48.690;9.466;2022-12-18T23:06:57;55.27;;;25.13;;
18973;SDS011;9621;48.690;9.466;2022-12-18T23:09:24;53.63;;;24.33;;
18973;SDS011;9621;48.690;9.466;2022-12-18T23:11:51;50.00;;;24.20;;
18973;SDS011;9621;48.690;9.466;2022-12-18T23:14:18;47.93;;;24.27;;
18973;SDS011;9621;48.690;9.466;2022-12-18T23:16:45;59.03;;;25.87;;
18973;SDS011;9621;48.690;9.466;2022-12-18T23:19:12;48.27;;;24.97;;
18973;SDS011;9621;48.690;9.466;2022-12-18T23:21:41;54.60;;;26.27;;
18973;SDS011;9621;48.690;9.466;2022-12-18T23:24:07;49.83;;;25.03;;
18973;SDS011;9621;48.690;9.466;2022-12-18T23:26:35;55.27;;;25.67;;
18973;SDS011;9621;48.690;9.466;2022-12-18T23:29:02;55.33;;;26.17;;
18973;SDS011;9621;48.690;9.466;2022-12-18T23:31:30;54.80;;;25.57;;
18973;SDS011;9621;48.690;9.466;2022-12-18T23:33:59;57.70;;;28.10;;
18973;SDS011;9621;48.690;9.466;2022-12-18T23:36:27;57.63;;;27.83;;
18973;SDS011;9621;48.690;9.466;2022-12-18T23:38:58;53.70;;;26.33;;
18973;SDS011;9621;48.690;9.466;2022-12-18T23:41:27;58.27;;;28.23;;
18973;SDS011;9621;48.690;9.466;2022-12-18T23:43:55;58.07;;;28.33;;
18973;SDS011;9621;48.690;9.466;2022-12-18T23:46:24;55.97;;;27.50;;
18973;SDS011;9621;48.690;9.466;2022-12-18T23:48:52;52.97;;;26.93;;
18973;SDS011;9621;48.690;9.466;2022-12-18T23:51:20;58.70;;;28.43;;
18973;SDS011;9621;48.690;9.466;2022-12-18T23:53:49;55.73;;;28.37;;
18973;SDS011;9621;48.690;9.466;2022-12-18T23:56:18;50.33;;;24.47;;
18973;SDS011;9621;48.690;9.466;2022-12-18T23:58:45;57.47;;;26.47;;
